F/V Mailys Charlie — FMIW — position and weather

sailwx.info

Track history (hours):
 
Tides and Currents Weather Stations Pressure Air Temp Water Temp Dewpoint Dewpoint Depression Visibility Wind Speed Wind Dir Waves Ship Positions

F/V Mailys Charlie

Last reported at 2015-Aug-03 22:33 UTC. Time now 2015-Aug-03 23:26 UTC.
Position N 47°21' W 002°31'.

Length 19 m.

Type: Fishing. MMSI: 228240800.

Date/timePositionNaut miles runAvg speedWind from/ knotsBaromVisibWave heightAir tempDewpointWater temp
2015-Aug-03 22:33N 47°21' W 002°31'0 0.0
2015-Aug-03 21:33N 47°21' W 002°31'0 0.0
2015-Aug-03 20:33N 47°21' W 002°31'0 0.0
2015-Aug-03 19:33N 47°21' W 002°31'0 0.0
2015-Aug-03 18:33N 47°21' W 002°31'0 0.0
2015-Aug-03 17:33N 47°21' W 002°31'0 0.0
2015-Aug-03 16:33N 47°21' W 002°31'0 0.1
2015-Aug-03 15:33N 47°21' W 002°31'0 0.0
2015-Aug-03 14:33N 47°21' W 002°31'0 0.0
2015-Aug-03 13:33N 47°21' W 002°31'0 0.0
2015-Aug-03 12:34N 47°21' W 002°31'0 0.0
2015-Aug-03 11:33N 47°21' W 002°31'0 0.0
2015-Aug-03 10:33N 47°21' W 002°31'0 0.0
2015-Aug-03 09:33N 47°21' W 002°31'0 0.0
2015-Aug-03 08:34N 47°21' W 002°31'0 0.0
2015-Aug-03 07:33N 47°21' W 002°31'0 0.0
2015-Aug-03 06:33N 47°21' W 002°31'0 0.0
2015-Aug-03 05:33N 47°21' W 002°31'0 0.1
2015-Aug-03 04:32N 47°21' W 002°31'0 0.0
2015-Aug-03 03:33N 47°21' W 002°31'0 0.0
2015-Aug-03 02:33N 47°21' W 002°31'0 0.0
2015-Aug-03 01:29N 47°21' W 002°31'0 0.0
2015-Aug-03 00:31N 47°21' W 002°31'0 0.0
2015-Aug-02 23:33N 47°21' W 002°31'0 0.0
2015-Aug-02 22:33N 47°21' W 002°31'0 0.0
2015-Aug-02 21:28N 47°21' W 002°31'0 0.0
2015-Aug-02 20:33N 47°21' W 002°31'0 0.0
2015-Aug-02 19:33N 47°21' W 002°31'0 0.0
2015-Aug-02 18:33N 47°21' W 002°31'0 0.0
2015-Aug-02 17:33N 47°21' W 002°31'0 0.0
2015-Aug-02 16:33N 47°21' W 002°31'0 0.0
2015-Aug-02 15:34N 47°21' W 002°31'0 0.0
2015-Aug-02 14:34N 47°21' W 002°31'0 0.0
2015-Aug-02 13:33N 47°21' W 002°31'0 0.0
2015-Aug-02 12:33N 47°21' W 002°31'0 0.0
2015-Aug-02 11:33N 47°21' W 002°31'0 0.0
2015-Aug-02 10:33N 47°21' W 002°31'0 0.0
2015-Aug-02 09:33N 47°21' W 002°31'0 0.0
2015-Aug-02 08:33N 47°21' W 002°31'0 0.0
2015-Aug-02 07:33N 47°21' W 002°31'0 0.0
2015-Aug-02 06:34N 47°21' W 002°31'0 0.0
2015-Aug-02 05:32N 47°21' W 002°31'0 0.0
2015-Aug-02 04:33N 47°21' W 002°31'0 0.0
2015-Aug-02 03:34N 47°21' W 002°31'0 0.0
2015-Aug-02 02:32N 47°21' W 002°31'0 0.0
2015-Aug-02 01:34N 47°21' W 002°31'0 0.0
2015-Aug-02 00:34N 47°21' W 002°31'0 0.0
2015-Aug-01 23:28N 47°21' W 002°31'0 0.0
2015-Aug-01 22:34N 47°21' W 002°31'0 0.0
2015-Aug-01 21:33N 47°21' W 002°31'0 0.0
2015-Aug-01 20:34N 47°21' W 002°31'0 0.0
2015-Aug-01 19:34N 47°21' W 002°31'0 0.0
2015-Aug-01 18:33N 47°21' W 002°31'0 0.0
2015-Aug-01 17:34N 47°21' W 002°31'0 0.0
2015-Aug-01 16:33N 47°21' W 002°31'0 0.0
2015-Aug-01 15:33N 47°21' W 002°31'0 0.0
2015-Aug-01 14:33N 47°21' W 002°31'0 0.0
2015-Aug-01 13:34N 47°21' W 002°31'0 0.0
2015-Aug-01 12:33N 47°21' W 002°31'0 0.0
2015-Aug-01 11:34N 47°21' W 002°31'0 0.0
2015-Aug-01 10:33N 47°21' W 002°31'0 0.0
2015-Aug-01 09:33N 47°21' W 002°31'0 0.0
2015-Aug-01 08:09N 47°21' W 002°31'0 0.0
2015-Aug-01 06:32N 47°21' W 002°31'0 0.0
2015-Aug-01 05:34N 47°21' W 002°31'0 0.0
2015-Aug-01 04:33N 47°21' W 002°31'0 0.0
2015-Aug-01 03:33N 47°21' W 002°31'0 0.0
2015-Aug-01 02:33N 47°21' W 002°31'0 0.0
2015-Aug-01 01:33N 47°21' W 002°31'0 0.0
2015-Aug-01 00:32N 47°21' W 002°31'3 3.4
2015-Jul-31 23:33N 47°19' W 002°34'10 9.7
2015-Jul-31 22:34N 47°10' W 002°41'10 9.5
2015-Jul-31 21:28N 47°01' W 002°49'8 9.0
2015-Jul-31 20:34N 46°55' W 002°55'9 8.5
2015-Jul-31 19:31N 46°47' W 003°02'10 8.6
2015-Jul-31 18:24N 46°39' W 003°11'  
Track history (hours):
 
Tides and Currents Weather Stations Pressure Air Temp Water Temp Dewpoint Dewpoint Depression Visibility Wind Speed Wind Dir Waves Ship Positions

F/V Mailys Charlie

Last reported at 2015-Aug-03 22:33 UTC. Time now 2015-Aug-03 23:26 UTC.
Position N 47°21' W 002°31'.

Length 19 m.

Type: Fishing. MMSI: 228240800.

Date/timePositionNaut miles runAvg speedWind from/ knotsBaromVisibWave heightAir tempDewpointWater temp
2015-Aug-03 22:33N 47°21' W 002°31'0 0.0
2015-Aug-03 21:33N 47°21' W 002°31'0 0.0
2015-Aug-03 20:33N 47°21' W 002°31'0 0.0
2015-Aug-03 19:33N 47°21' W 002°31'0 0.0
2015-Aug-03 18:33N 47°21' W 002°31'0 0.0
2015-Aug-03 17:33N 47°21' W 002°31'0 0.0
2015-Aug-03 16:33N 47°21' W 002°31'0 0.1
2015-Aug-03 15:33N 47°21' W 002°31'0 0.0
2015-Aug-03 14:33N 47°21' W 002°31'0 0.0
2015-Aug-03 13:33N 47°21' W 002°31'0 0.0
2015-Aug-03 12:34N 47°21' W 002°31'0 0.0
2015-Aug-03 11:33N 47°21' W 002°31'0 0.0
2015-Aug-03 10:33N 47°21' W 002°31'0 0.0
2015-Aug-03 09:33N 47°21' W 002°31'0 0.0
2015-Aug-03 08:34N 47°21' W 002°31'0 0.0
2015-Aug-03 07:33N 47°21' W 002°31'0 0.0
2015-Aug-03 06:33N 47°21' W 002°31'0 0.0
2015-Aug-03 05:33N 47°21' W 002°31'0 0.1
2015-Aug-03 04:32N 47°21' W 002°31'0 0.0
2015-Aug-03 03:33N 47°21' W 002°31'0 0.0
2015-Aug-03 02:33N 47°21' W 002°31'0 0.0
2015-Aug-03 01:29N 47°21' W 002°31'0 0.0
2015-Aug-03 00:31N 47°21' W 002°31'0 0.0
2015-Aug-02 23:33N 47°21' W 002°31'0 0.0
2015-Aug-02 22:33N 47°21' W 002°31'0 0.0
2015-Aug-02 21:28N 47°21' W 002°31'0 0.0
2015-Aug-02 20:33N 47°21' W 002°31'0 0.0
2015-Aug-02 19:33N 47°21' W 002°31'0 0.0
2015-Aug-02 18:33N 47°21' W 002°31'0 0.0
2015-Aug-02 17:33N 47°21' W 002°31'0 0.0
2015-Aug-02 16:33N 47°21' W 002°31'0 0.0
2015-Aug-02 15:34N 47°21' W 002°31'0 0.0
2015-Aug-02 14:34N 47°21' W 002°31'0 0.0
2015-Aug-02 13:33N 47°21' W 002°31'0 0.0
2015-Aug-02 12:33N 47°21' W 002°31'0 0.0
2015-Aug-02 11:33N 47°21' W 002°31'0 0.0
2015-Aug-02 10:33N 47°21' W 002°31'0 0.0
2015-Aug-02 09:33N 47°21' W 002°31'0 0.0
2015-Aug-02 08:33N 47°21' W 002°31'0 0.0
2015-Aug-02 07:33N 47°21' W 002°31'0 0.0
2015-Aug-02 06:34N 47°21' W 002°31'0 0.0
2015-Aug-02 05:32N 47°21' W 002°31'0 0.0
2015-Aug-02 04:33N 47°21' W 002°31'0 0.0
2015-Aug-02 03:34N 47°21' W 002°31'0 0.0
2015-Aug-02 02:32N 47°21' W 002°31'0 0.0
2015-Aug-02 01:34N 47°21' W 002°31'0 0.0
2015-Aug-02 00:34N 47°21' W 002°31'0 0.0
2015-Aug-01 23:28N 47°21' W 002°31'0 0.0
2015-Aug-01 22:34N 47°21' W 002°31'0 0.0
2015-Aug-01 21:33N 47°21' W 002°31'0 0.0
2015-Aug-01 20:34N 47°21' W 002°31'0 0.0
2015-Aug-01 19:34N 47°21' W 002°31'0 0.0
2015-Aug-01 18:33N 47°21' W 002°31'0 0.0
2015-Aug-01 17:34N 47°21' W 002°31'0 0.0
2015-Aug-01 16:33N 47°21' W 002°31'0 0.0
2015-Aug-01 15:33N 47°21' W 002°31'0 0.0
2015-Aug-01 14:33N 47°21' W 002°31'0 0.0
2015-Aug-01 13:34N 47°21' W 002°31'0 0.0
2015-Aug-01 12:33N 47°21' W 002°31'0 0.0
2015-Aug-01 11:34N 47°21' W 002°31'0 0.0
2015-Aug-01 10:33N 47°21' W 002°31'0 0.0
2015-Aug-01 09:33N 47°21' W 002°31'0 0.0
2015-Aug-01 08:09N 47°21' W 002°31'0 0.0
2015-Aug-01 06:32N 47°21' W 002°31'0 0.0
2015-Aug-01 05:34N 47°21' W 002°31'0 0.0
2015-Aug-01 04:33N 47°21' W 002°31'0 0.0
2015-Aug-01 03:33N 47°21' W 002°31'0 0.0
2015-Aug-01 02:33N 47°21' W 002°31'0 0.0
2015-Aug-01 01:33N 47°21' W 002°31'0 0.0
2015-Aug-01 00:32N 47°21' W 002°31'3 3.4
2015-Jul-31 23:33N 47°19' W 002°34'10 9.7
2015-Jul-31 22:34N 47°10' W 002°41'10 9.5
2015-Jul-31 21:28N 47°01' W 002°49'8 9.0
2015-Jul-31 20:34N 46°55' W 002°55'9 8.5
2015-Jul-31 19:31N 46°47' W 003°02'10 8.6
2015-Jul-31 18:24N 46°39' W 003°11'  

Dump ship's entire track history